sensor_id;sensor_type;location;lat;lon;timestamp;P1;durP1;ratioP1;P2;durP2;ratioP2
2390;SDS011;22957;50.824;4.360;2023-04-08T00:02:13;17.47;;;6.30;;
2390;SDS011;22957;50.824;4.360;2023-04-08T00:04:40;14.27;;;5.20;;
2390;SDS011;22957;50.824;4.360;2023-04-08T00:07:06;14.77;;;5.77;;
2390;SDS011;22957;50.824;4.360;2023-04-08T00:09:31;19.33;;;5.40;;
2390;SDS011;22957;50.824;4.360;2023-04-08T00:11:58;19.40;;;5.83;;
2390;SDS011;22957;50.824;4.360;2023-04-08T00:14:23;12.47;;;4.60;;
2390;SDS011;22957;50.824;4.360;2023-04-08T00:16:49;14.10;;;5.20;;
2390;SDS011;22957;50.824;4.360;2023-04-08T00:19:16;11.87;;;4.80;;
2390;SDS011;22957;50.824;4.360;2023-04-08T00:21:42;20.63;;;5.47;;
2390;SDS011;22957;50.824;4.360;2023-04-08T00:24:08;19.73;;;7.40;;
2390;SDS011;22957;50.824;4.360;2023-04-08T00:26:35;32.77;;;7.70;;
2390;SDS011;22957;50.824;4.360;2023-04-08T00:29:00;17.90;;;5.60;;
2390;SDS011;22957;50.824;4.360;2023-04-08T00:31:26;16.03;;;6.23;;
2390;SDS011;22957;50.824;4.360;2023-04-08T00:33:51;15.60;;;5.73;;
2390;SDS011;22957;50.824;4.360;2023-04-08T00:36:17;12.63;;;5.17;;
2390;SDS011;22957;50.824;4.360;2023-04-08T00:38:43;12.27;;;4.70;;
2390;SDS011;22957;50.824;4.360;2023-04-08T00:41:09;15.47;;;5.30;;
2390;SDS011;22957;50.824;4.360;2023-04-08T00:43:35;14.50;;;5.27;;
2390;SDS011;22957;50.824;4.360;2023-04-08T00:46:00;14.57;;;5.20;;
2390;SDS011;22957;50.824;4.360;2023-04-08T00:48:26;10.60;;;5.60;;
2390;SDS011;22957;50.824;4.360;2023-04-08T00:50:52;10.07;;;4.70;;
2390;SDS011;22957;50.824;4.360;2023-04-08T00:53:18;11.93;;;5.30;;
2390;SDS011;22957;50.824;4.360;2023-04-08T00:55:44;11.87;;;5.30;;
2390;SDS011;22957;50.824;4.360;2023-04-08T00:58:10;15.70;;;6.20;;
2390;SDS011;22957;50.824;4.360;2023-04-08T01:00:37;14.27;;;4.90;;
2390;SDS011;22957;50.824;4.360;2023-04-08T01:03:15;22.13;;;5.20;;
2390;SDS011;22957;50.824;4.360;2023-04-08T01:05:55;12.87;;;5.63;;
2390;SDS011;22957;50.824;4.360;2023-04-08T01:08:34;13.30;;;5.50;;
2390;SDS011;22957;50.824;4.360;2023-04-08T01:11:02;19.77;;;5.93;;
2390;SDS011;22957;50.824;4.360;2023-04-08T01:13:30;15.10;;;6.13;;
2390;SDS011;22957;50.824;4.360;2023-04-08T01:16:00;16.83;;;5.57;;
2390;SDS011;22957;50.824;4.360;2023-04-08T01:18:26;13.40;;;6.77;;
2390;SDS011;22957;50.824;4.360;2023-04-08T01:20:53;14.70;;;6.47;;
2390;SDS011;22957;50.824;4.360;2023-04-08T01:23:24;11.00;;;5.17;;
2390;SDS011;22957;50.824;4.360;2023-04-08T01:26:20;16.13;;;6.63;;
2390;SDS011;22957;50.824;4.360;2023-04-08T01:28:51;15.20;;;5.50;;
2390;SDS011;22957;50.824;4.360;2023-04-08T01:31:21;22.03;;;5.37;;
2390;SDS011;22957;50.824;4.360;2023-04-08T01:33:49;13.23;;;5.40;;
2390;SDS011;22957;50.824;4.360;2023-04-08T01:36:16;14.60;;;5.63;;
2390;SDS011;22957;50.824;4.360;2023-04-08T01:38:44;20.57;;;6.30;;
2390;SDS011;22957;50.824;4.360;2023-04-08T01:41:11;12.80;;;5.63;;
2390;SDS011;22957;50.824;4.360;2023-04-08T01:43:38;15.00;;;5.70;;
2390;SDS011;22957;50.824;4.360;2023-04-08T01:46:05;14.23;;;5.37;;
2390;SDS011;22957;50.824;4.360;2023-04-08T01:48:32;15.53;;;6.53;;
2390;SDS011;22957;50.824;4.360;2023-04-08T01:50:59;12.33;;;5.47;;
2390;SDS011;22957;50.824;4.360;2023-04-08T01:53:26;13.40;;;5.77;;
2390;SDS011;22957;50.824;4.360;2023-04-08T01:55:54;17.60;;;5.60;;
2390;SDS011;22957;50.824;4.360;2023-04-08T01:58:24;12.90;;;5.37;;
2390;SDS011;22957;50.824;4.360;2023-04-08T02:00:57;16.70;;;5.17;;
2390;SDS011;22957;50.824;4.360;2023-04-08T02:03:23;11.97;;;6.87;;
2390;SDS011;22957;50.824;4.360;2023-04-08T02:05:52;14.87;;;6.80;;
2390;SDS011;22957;50.824;4.360;2023-04-08T02:08:18;20.87;;;6.67;;
2390;SDS011;22957;50.824;4.360;2023-04-08T02:10:43;13.67;;;6.90;;
2390;SDS011;22957;50.824;4.360;2023-04-08T02:13:09;13.30;;;6.60;;
2390;SDS011;22957;50.824;4.360;2023-04-08T02:15:37;12.93;;;7.47;;
2390;SDS011;22957;50.824;4.360;2023-04-08T02:18:12;18.00;;;5.80;;
2390;SDS011;22957;50.824;4.360;2023-04-08T02:20:47;16.03;;;7.63;;
2390;SDS011;22957;50.824;4.360;2023-04-08T02:23:21;17.43;;;6.93;;
2390;SDS011;22957;50.824;4.360;2023-04-08T02:25:52;13.27;;;6.07;;
2390;SDS011;22957;50.824;4.360;2023-04-08T02:28:20;16.37;;;6.00;;
2390;SDS011;22957;50.824;4.360;2023-04-08T02:30:49;11.97;;;6.70;;
2390;SDS011;22957;50.824;4.360;2023-04-08T02:33:20;19.53;;;6.60;;
2390;SDS011;22957;50.824;4.360;2023-04-08T02:35:48;18.60;;;7.87;;
2390;SDS011;22957;50.824;4.360;2023-04-08T02:38:15;19.87;;;7.20;;
2390;SDS011;22957;50.824;4.360;2023-04-08T02:40:42;17.57;;;7.20;;
2390;SDS011;22957;50.824;4.360;2023-04-08T02:43:08;12.77;;;7.30;;
2390;SDS011;22957;50.824;4.360;2023-04-08T02:45:37;16.13;;;5.77;;
2390;SDS011;22957;50.824;4.360;2023-04-08T02:48:06;21.80;;;6.93;;
2390;SDS011;22957;50.824;4.360;2023-04-08T02:50:32;11.13;;;6.57;;
2390;SDS011;22957;50.824;4.360;2023-04-08T02:52:59;8.17;;;5.40;;
2390;SDS011;22957;50.824;4.360;2023-04-08T02:55:27;12.80;;;5.90;;
2390;SDS011;22957;50.824;4.360;2023-04-08T02:57:52;13.83;;;6.13;;
2390;SDS011;22957;50.824;4.360;2023-04-08T03:00:20;9.70;;;6.00;;
2390;SDS011;22957;50.824;4.360;2023-04-08T03:02:46;17.07;;;7.87;;
2390;SDS011;22957;50.824;4.360;2023-04-08T03:05:12;23.33;;;8.30;;
2390;SDS011;22957;50.824;4.360;2023-04-08T03:07:38;16.33;;;7.53;;
2390;SDS011;22957;50.824;4.360;2023-04-08T03:10:03;14.13;;;6.77;;
2390;SDS011;22957;50.824;4.360;2023-04-08T03:12:30;15.70;;;7.23;;
2390;SDS011;22957;50.824;4.360;2023-04-08T03:14:57;10.53;;;6.70;;
2390;SDS011;22957;50.824;4.360;2023-04-08T03:17:22;12.13;;;7.23;;
2390;SDS011;22957;50.824;4.360;2023-04-08T03:19:48;13.63;;;7.00;;
2390;SDS011;22957;50.824;4.360;2023-04-08T03:22:14;15.60;;;6.30;;
2390;SDS011;22957;50.824;4.360;2023-04-08T03:24:39;9.70;;;5.70;;
2390;SDS011;22957;50.824;4.360;2023-04-08T03:27:05;17.80;;;6.67;;
2390;SDS011;22957;50.824;4.360;2023-04-08T03:29:32;12.83;;;6.90;;
2390;SDS011;22957;50.824;4.360;2023-04-08T03:31:58;12.63;;;7.70;;
2390;SDS011;22957;50.824;4.360;2023-04-08T03:34:24;11.20;;;6.60;;
2390;SDS011;22957;50.824;4.360;2023-04-08T03:36:50;12.50;;;7.53;;
2390;SDS011;22957;50.824;4.360;2023-04-08T03:39:16;19.53;;;7.60;;
2390;SDS011;22957;50.824;4.360;2023-04-08T03:41:41;13.17;;;8.40;;
2390;SDS011;22957;50.824;4.360;2023-04-08T03:44:07;16.50;;;9.10;;
2390;SDS011;22957;50.824;4.360;2023-04-08T03:46:34;20.57;;;10.53;;
2390;SDS011;22957;50.824;4.360;2023-04-08T03:49:00;16.63;;;8.47;;
2390;SDS011;22957;50.824;4.360;2023-04-08T03:51:26;16.23;;;8.87;;
2390;SDS011;22957;50.824;4.360;2023-04-08T03:53:53;16.97;;;9.50;;
2390;SDS011;22957;50.824;4.360;2023-04-08T03:56:20;16.10;;;9.10;;
2390;SDS011;22957;50.824;4.360;2023-04-08T03:58:45;21.00;;;11.97;;
2390;SDS011;22957;50.824;4.360;2023-04-08T04:01:11;15.90;;;9.73;;
2390;SDS011;22957;50.824;4.360;2023-04-08T04:03:36;17.93;;;10.17;;
2390;SDS011;22957;50.824;4.360;2023-04-08T04:06:02;22.40;;;11.43;;
2390;SDS011;22957;50.824;4.360;2023-04-08T04:08:28;18.60;;;10.57;;
2390;SDS011;22957;50.824;4.360;2023-04-08T04:10:53;20.13;;;11.57;;
2390;SDS011;22957;50.824;4.360;2023-04-08T04:13:19;22.30;;;9.40;;
2390;SDS011;22957;50.824;4.360;2023-04-08T04:15:45;21.80;;;11.87;;
2390;SDS011;22957;50.824;4.360;2023-04-08T04:18:11;18.67;;;9.97;;
2390;SDS011;22957;50.824;4.360;2023-04-08T04:20:40;15.90;;;9.50;;
2390;SDS011;22957;50.824;4.360;2023-04-08T04:23:07;21.17;;;11.77;;
2390;SDS011;22957;50.824;4.360;2023-04-08T04:25:33;18.60;;;10.10;;
2390;SDS011;22957;50.824;4.360;2023-04-08T04:27:59;24.80;;;11.93;;
2390;SDS011;22957;50.824;4.360;2023-04-08T04:30:27;24.03;;;12.07;;
2390;SDS011;22957;50.824;4.360;2023-04-08T04:32:53;23.53;;;11.70;;
2390;SDS011;22957;50.824;4.360;2023-04-08T04:35:18;28.03;;;14.00;;
2390;SDS011;22957;50.824;4.360;2023-04-08T04:37:44;21.63;;;11.57;;
2390;SDS011;22957;50.824;4.360;2023-04-08T04:40:09;31.90;;;13.27;;
2390;SDS011;22957;50.824;4.360;2023-04-08T04:42:36;20.73;;;12.47;;
2390;SDS011;22957;50.824;4.360;2023-04-08T04:45:02;26.30;;;14.23;;
2390;SDS011;22957;50.824;4.360;2023-04-08T04:47:28;30.20;;;13.20;;
2390;SDS011;22957;50.824;4.360;2023-04-08T04:49:56;18.70;;;10.60;;
2390;SDS011;22957;50.824;4.360;2023-04-08T04:52:22;21.30;;;13.20;;
2390;SDS011;22957;50.824;4.360;2023-04-08T04:54:47;27.60;;;13.70;;
2390;SDS011;22957;50.824;4.360;2023-04-08T04:57:14;25.73;;;12.70;;
2390;SDS011;22957;50.824;4.360;2023-04-08T04:59:40;25.30;;;12.80;;
2390;SDS011;22957;50.824;4.360;2023-04-08T05:02:05;19.13;;;12.47;;
2390;SDS011;22957;50.824;4.360;2023-04-08T05:04:31;27.33;;;11.73;;
2390;SDS011;22957;50.824;4.360;2023-04-08T05:06:58;24.13;;;12.43;;
2390;SDS011;22957;50.824;4.360;2023-04-08T05:09:24;22.60;;;12.30;;
2390;SDS011;22957;50.824;4.360;2023-04-08T05:11:50;28.13;;;13.50;;
2390;SDS011;22957;50.824;4.360;2023-04-08T05:14:15;26.53;;;13.43;;
2390;SDS011;22957;50.824;4.360;2023-04-08T05:16:41;34.23;;;14.13;;
2390;SDS011;22957;50.824;4.360;2023-04-08T05:19:08;25.10;;;14.23;;
2390;SDS011;22957;50.824;4.360;2023-04-08T05:21:35;26.30;;;13.23;;
2390;SDS011;22957;50.824;4.360;2023-04-08T05:24:01;24.57;;;11.40;;
2390;SDS011;22957;50.824;4.360;2023-04-08T05:26:26;19.17;;;11.70;;
2390;SDS011;22957;50.824;4.360;2023-04-08T05:28:52;23.50;;;11.77;;
2390;SDS011;22957;50.824;4.360;2023-04-08T05:31:18;26.23;;;11.90;;
2390;SDS011;22957;50.824;4.360;2023-04-08T05:33:45;27.10;;;11.60;;
2390;SDS011;22957;50.824;4.360;2023-04-08T05:36:11;22.83;;;11.57;;
2390;SDS011;22957;50.824;4.360;2023-04-08T05:38:39;26.97;;;12.87;;
2390;SDS011;22957;50.824;4.360;2023-04-08T05:41:09;22.60;;;11.00;;
2390;SDS011;22957;50.824;4.360;2023-04-08T05:43:35;25.57;;;12.20;;
2390;SDS011;22957;50.824;4.360;2023-04-08T05:46:07;24.07;;;13.73;;
2390;SDS011;22957;50.824;4.360;2023-04-08T05:48:34;24.33;;;12.60;;
2390;SDS011;22957;50.824;4.360;2023-04-08T05:51:01;31.03;;;15.73;;
2390;SDS011;22957;50.824;4.360;2023-04-08T05:53:26;29.07;;;13.63;;
2390;SDS011;22957;50.824;4.360;2023-04-08T05:55:52;25.57;;;13.10;;
2390;SDS011;22957;50.824;4.360;2023-04-08T05:58:17;24.60;;;12.30;;
2390;SDS011;22957;50.824;4.360;2023-04-08T06:00:43;23.87;;;10.97;;
2390;SDS011;22957;50.824;4.360;2023-04-08T06:03:08;19.97;;;10.93;;
2390;SDS011;22957;50.824;4.360;2023-04-08T06:05:34;24.97;;;11.63;;
2390;SDS011;22957;50.824;4.360;2023-04-08T06:08:01;22.30;;;12.20;;
2390;SDS011;22957;50.824;4.360;2023-04-08T06:10:26;21.80;;;11.53;;
2390;SDS011;22957;50.824;4.360;2023-04-08T06:12:52;21.73;;;10.63;;
2390;SDS011;22957;50.824;4.360;2023-04-08T06:15:17;22.83;;;12.70;;
2390;SDS011;22957;50.824;4.360;2023-04-08T06:17:43;24.33;;;14.80;;
2390;SDS011;22957;50.824;4.360;2023-04-08T06:20:09;21.93;;;10.70;;
2390;SDS011;22957;50.824;4.360;2023-04-08T06:22:35;23.13;;;13.00;;
2390;SDS011;22957;50.824;4.360;2023-04-08T06:25:01;22.00;;;11.17;;
2390;SDS011;22957;50.824;4.360;2023-04-08T06:27:27;25.80;;;12.60;;
2390;SDS011;22957;50.824;4.360;2023-04-08T06:29:53;22.73;;;13.20;;
2390;SDS011;22957;50.824;4.360;2023-04-08T06:32:20;20.97;;;11.23;;
2390;SDS011;22957;50.824;4.360;2023-04-08T06:34:47;30.83;;;13.77;;
2390;SDS011;22957;50.824;4.360;2023-04-08T06:37:13;18.57;;;11.77;;
2390;SDS011;22957;50.824;4.360;2023-04-08T06:39:38;18.10;;;12.20;;
2390;SDS011;22957;50.824;4.360;2023-04-08T06:42:04;23.13;;;12.43;;
2390;SDS011;22957;50.824;4.360;2023-04-08T06:44:30;26.40;;;14.17;;
2390;SDS011;22957;50.824;4.360;2023-04-08T06:47:00;27.73;;;13.67;;
2390;SDS011;22957;50.824;4.360;2023-04-08T06:49:26;26.83;;;13.53;;
2390;SDS011;22957;50.824;4.360;2023-04-08T06:51:53;26.47;;;14.80;;
2390;SDS011;22957;50.824;4.360;2023-04-08T06:54:20;20.17;;;11.13;;
2390;SDS011;22957;50.824;4.360;2023-04-08T06:56:48;22.20;;;11.87;;
2390;SDS011;22957;50.824;4.360;2023-04-08T06:59:15;21.30;;;12.60;;
2390;SDS011;22957;50.824;4.360;2023-04-08T07:01:43;20.23;;;10.37;;
2390;SDS011;22957;50.824;4.360;2023-04-08T07:04:09;19.47;;;11.70;;
2390;SDS011;22957;50.824;4.360;2023-04-08T07:06:35;19.97;;;11.27;;
2390;SDS011;22957;50.824;4.360;2023-04-08T07:09:01;19.03;;;11.90;;
2390;SDS011;22957;50.824;4.360;2023-04-08T07:11:27;23.30;;;11.37;;
2390;SDS011;22957;50.824;4.360;2023-04-08T07:14:03;21.80;;;10.90;;
2390;SDS011;22957;50.824;4.360;2023-04-08T07:16:30;18.70;;;9.93;;
2390;SDS011;22957;50.824;4.360;2023-04-08T07:18:55;20.70;;;10.80;;
2390;SDS011;22957;50.824;4.360;2023-04-08T07:21:21;19.90;;;10.80;;
2390;SDS011;22957;50.824;4.360;2023-04-08T07:23:48;22.60;;;11.87;;
2390;SDS011;22957;50.824;4.360;2023-04-08T07:26:14;16.87;;;9.90;;
2390;SDS011;22957;50.824;4.360;2023-04-08T07:28:41;15.10;;;10.23;;
2390;SDS011;22957;50.824;4.360;2023-04-08T07:31:16;14.87;;;9.17;;
2390;SDS011;22957;50.824;4.360;2023-04-08T07:33:43;18.40;;;9.87;;
2390;SDS011;22957;50.824;4.360;2023-04-08T07:36:09;11.93;;;7.40;;
2390;SDS011;22957;50.824;4.360;2023-04-08T07:38:36;14.60;;;8.00;;
2390;SDS011;22957;50.824;4.360;2023-04-08T07:41:02;10.07;;;7.57;;
2390;SDS011;22957;50.824;4.360;2023-04-08T07:43:29;10.73;;;8.80;;
2390;SDS011;22957;50.824;4.360;2023-04-08T07:45:59;14.90;;;9.43;;
2390;SDS011;22957;50.824;4.360;2023-04-08T07:48:29;16.33;;;8.13;;
2390;SDS011;22957;50.824;4.360;2023-04-08T07:50:55;14.83;;;8.67;;
2390;SDS011;22957;50.824;4.360;2023-04-08T07:53:21;13.20;;;8.43;;
2390;SDS011;22957;50.824;4.360;2023-04-08T07:55:50;15.30;;;9.60;;
2390;SDS011;22957;50.824;4.360;2023-04-08T07:58:16;12.70;;;9.03;;
2390;SDS011;22957;50.824;4.360;2023-04-08T08:00:42;14.00;;;8.70;;
2390;SDS011;22957;50.824;4.360;2023-04-08T08:03:07;15.60;;;10.67;;
2390;SDS011;22957;50.824;4.360;2023-04-08T08:05:34;14.33;;;10.20;;
2390;SDS011;22957;50.824;4.360;2023-04-08T08:08:00;14.30;;;9.43;;
2390;SDS011;22957;50.824;4.360;2023-04-08T08:10:26;16.50;;;9.00;;
2390;SDS011;22957;50.824;4.360;2023-04-08T08:12:52;14.73;;;8.80;;
2390;SDS011;22957;50.824;4.360;2023-04-08T08:15:18;13.70;;;8.43;;
2390;SDS011;22957;50.824;4.360;2023-04-08T08:17:44;17.20;;;9.40;;
2390;SDS011;22957;50.824;4.360;2023-04-08T08:20:13;20.60;;;11.03;;
2390;SDS011;22957;50.824;4.360;2023-04-08T08:22:39;19.57;;;12.27;;
2390;SDS011;22957;50.824;4.360;2023-04-08T08:25:05;18.77;;;11.40;;
2390;SDS011;22957;50.824;4.360;2023-04-08T08:27:32;13.67;;;9.43;;
2390;SDS011;22957;50.824;4.360;2023-04-08T08:29:59;12.30;;;9.10;;
2390;SDS011;22957;50.824;4.360;2023-04-08T08:32:25;16.13;;;10.90;;
2390;SDS011;22957;50.824;4.360;2023-04-08T08:34:50;18.17;;;11.43;;
2390;SDS011;22957;50.824;4.360;2023-04-08T08:37:17;18.47;;;11.03;;
2390;SDS011;22957;50.824;4.360;2023-04-08T08:39:43;20.53;;;9.97;;
2390;SDS011;22957;50.824;4.360;2023-04-08T08:42:20;16.83;;;9.77;;
2390;SDS011;22957;50.824;4.360;2023-04-08T08:44:47;11.67;;;9.13;;
2390;SDS011;22957;50.824;4.360;2023-04-08T08:47:13;13.60;;;9.60;;
2390;SDS011;22957;50.824;4.360;2023-04-08T08:49:41;14.87;;;10.50;;
2390;SDS011;22957;50.824;4.360;2023-04-08T08:52:07;17.53;;;9.80;;
2390;SDS011;22957;50.824;4.360;2023-04-08T08:54:32;18.07;;;11.20;;
2390;SDS011;22957;50.824;4.360;2023-04-08T08:57:01;18.17;;;11.07;;
2390;SDS011;22957;50.824;4.360;2023-04-08T08:59:28;13.43;;;9.40;;
2390;SDS011;22957;50.824;4.360;2023-04-08T09:01:53;13.67;;;10.10;;
2390;SDS011;22957;50.824;4.360;2023-04-08T09:04:19;15.60;;;9.60;;
2390;SDS011;22957;50.824;4.360;2023-04-08T09:07:03;15.40;;;9.83;;
2390;SDS011;22957;50.824;4.360;2023-04-08T09:09:49;14.37;;;8.37;;
2390;SDS011;22957;50.824;4.360;2023-04-08T09:12:16;11.00;;;8.37;;
2390;SDS011;22957;50.824;4.360;2023-04-08T09:14:41;15.33;;;8.87;;
2390;SDS011;22957;50.824;4.360;2023-04-08T09:17:07;14.20;;;9.50;;
2390;SDS011;22957;50.824;4.360;2023-04-08T09:19:34;17.43;;;11.67;;
2390;SDS011;22957;50.824;4.360;2023-04-08T09:22:03;18.73;;;13.17;;
2390;SDS011;22957;50.824;4.360;2023-04-08T09:24:36;19.37;;;13.40;;
2390;SDS011;22957;50.824;4.360;2023-04-08T09:27:05;20.47;;;12.47;;
2390;SDS011;22957;50.824;4.360;2023-04-08T09:29:30;19.10;;;11.60;;
2390;SDS011;22957;50.824;4.360;2023-04-08T09:31:58;20.27;;;12.87;;
2390;SDS011;22957;50.824;4.360;2023-04-08T09:34:27;17.00;;;10.40;;
2390;SDS011;22957;50.824;4.360;2023-04-08T09:36:53;16.37;;;9.57;;
2390;SDS011;22957;50.824;4.360;2023-04-08T09:39:19;16.90;;;11.20;;
2390;SDS011;22957;50.824;4.360;2023-04-08T09:41:48;13.80;;;10.47;;
2390;SDS011;22957;50.824;4.360;2023-04-08T09:44:17;23.03;;;14.03;;
2390;SDS011;22957;50.824;4.360;2023-04-08T09:49:49;22.30;;;11.60;;
2390;SDS011;22957;50.824;4.360;2023-04-08T09:52:22;15.63;;;11.80;;
2390;SDS011;22957;50.824;4.360;2023-04-08T09:57:45;23.67;;;11.67;;
2390;SDS011;22957;50.824;4.360;2023-04-08T10:00:39;20.67;;;12.20;;
2390;SDS011;22957;50.824;4.360;2023-04-08T10:03:32;17.70;;;12.77;;
2390;SDS011;22957;50.824;4.360;2023-04-08T10:06:04;13.57;;;10.63;;
2390;SDS011;22957;50.824;4.360;2023-04-08T10:08:32;21.33;;;16.53;;
2390;SDS011;22957;50.824;4.360;2023-04-08T10:10:58;19.60;;;13.17;;
2390;SDS011;22957;50.824;4.360;2023-04-08T10:13:24;28.93;;;18.20;;
2390;SDS011;22957;50.824;4.360;2023-04-08T10:16:06;17.13;;;13.37;;
2390;SDS011;22957;50.824;4.360;2023-04-08T10:18:41;22.73;;;15.60;;
2390;SDS011;22957;50.824;4.360;2023-04-08T10:24:01;16.93;;;12.50;;
2390;SDS011;22957;50.824;4.360;2023-04-08T10:26:32;18.67;;;12.27;;
2390;SDS011;22957;50.824;4.360;2023-04-08T10:31:45;14.27;;;11.50;;
2390;SDS011;22957;50.824;4.360;2023-04-08T10:34:23;24.47;;;12.27;;
2390;SDS011;22957;50.824;4.360;2023-04-08T10:36:50;19.60;;;13.63;;
2390;SDS011;22957;50.824;4.360;2023-04-08T10:39:19;18.07;;;11.67;;
2390;SDS011;22957;50.824;4.360;2023-04-08T10:41:48;14.17;;;10.27;;
2390;SDS011;22957;50.824;4.360;2023-04-08T10:44:18;17.43;;;11.30;;
2390;SDS011;22957;50.824;4.360;2023-04-08T10:46:44;12.87;;;9.07;;
2390;SDS011;22957;50.824;4.360;2023-04-08T10:49:12;15.40;;;9.77;;
2390;SDS011;22957;50.824;4.360;2023-04-08T10:51:39;16.17;;;12.20;;
2390;SDS011;22957;50.824;4.360;2023-04-08T10:54:06;15.40;;;10.27;;
2390;SDS011;22957;50.824;4.360;2023-04-08T10:56:33;12.83;;;9.30;;
2390;SDS011;22957;50.824;4.360;2023-04-08T10:59:07;14.10;;;12.27;;
2390;SDS011;22957;50.824;4.360;2023-04-08T11:01:39;16.50;;;9.53;;
2390;SDS011;22957;50.824;4.360;2023-04-08T11:04:18;22.10;;;12.30;;
2390;SDS011;22957;50.824;4.360;2023-04-08T11:06:47;10.50;;;7.77;;
2390;SDS011;22957;50.824;4.360;2023-04-08T11:09:13;9.87;;;7.33;;
2390;SDS011;22957;50.824;4.360;2023-04-08T11:11:41;16.60;;;10.73;;
2390;SDS011;22957;50.824;4.360;2023-04-08T11:14:08;15.90;;;8.63;;
2390;SDS011;22957;50.824;4.360;2023-04-08T11:16:34;17.37;;;10.87;;
2390;SDS011;22957;50.824;4.360;2023-04-08T11:19:02;14.57;;;11.43;;
2390;SDS011;22957;50.824;4.360;2023-04-08T11:21:36;20.93;;;13.50;;
2390;SDS011;22957;50.824;4.360;2023-04-08T11:24:09;15.40;;;12.53;;
2390;SDS011;22957;50.824;4.360;2023-04-08T11:26:38;13.23;;;10.00;;
2390;SDS011;22957;50.824;4.360;2023-04-08T11:29:05;16.50;;;10.30;;
2390;SDS011;22957;50.824;4.360;2023-04-08T11:31:38;15.97;;;9.83;;
2390;SDS011;22957;50.824;4.360;2023-04-08T11:34:05;16.03;;;10.27;;
2390;SDS011;22957;50.824;4.360;2023-04-08T11:36:32;17.40;;;10.77;;
2390;SDS011;22957;50.824;4.360;2023-04-08T11:38:59;20.10;;;10.90;;
2390;SDS011;22957;50.824;4.360;2023-04-08T11:41:30;15.17;;;9.90;;
2390;SDS011;22957;50.824;4.360;2023-04-08T11:44:00;14.07;;;9.40;;
2390;SDS011;22957;50.824;4.360;2023-04-08T11:46:27;15.80;;;11.97;;
2390;SDS011;22957;50.824;4.360;2023-04-08T11:49:05;12.27;;;9.27;;
2390;SDS011;22957;50.824;4.360;2023-04-08T11:54:26;17.20;;;11.80;;
2390;SDS011;22957;50.824;4.360;2023-04-08T11:56:52;15.47;;;11.10;;
2390;SDS011;22957;50.824;4.360;2023-04-08T11:59:22;12.87;;;10.00;;
2390;SDS011;22957;50.824;4.360;2023-04-08T12:01:51;19.70;;;13.30;;
2390;SDS011;22957;50.824;4.360;2023-04-08T12:04:18;20.47;;;13.70;;
2390;SDS011;22957;50.824;4.360;2023-04-08T12:06:43;18.10;;;13.63;;
2390;SDS011;22957;50.824;4.360;2023-04-08T12:09:11;19.30;;;12.87;;
2390;SDS011;22957;50.824;4.360;2023-04-08T12:11:41;17.63;;;11.43;;
2390;SDS011;22957;50.824;4.360;2023-04-08T12:14:07;16.37;;;12.70;;
2390;SDS011;22957;50.824;4.360;2023-04-08T12:16:33;15.67;;;11.17;;
2390;SDS011;22957;50.824;4.360;2023-04-08T12:18:59;19.93;;;13.67;;
2390;SDS011;22957;50.824;4.360;2023-04-08T12:21:26;21.73;;;15.43;;
2390;SDS011;22957;50.824;4.360;2023-04-08T12:23:52;23.57;;;13.67;;
2390;SDS011;22957;50.824;4.360;2023-04-08T12:26:18;13.43;;;9.67;;
2390;SDS011;22957;50.824;4.360;2023-04-08T12:28:44;17.20;;;13.43;;
2390;SDS011;22957;50.824;4.360;2023-04-08T12:31:10;16.10;;;11.97;;
2390;SDS011;22957;50.824;4.360;2023-04-08T12:33:37;15.10;;;11.97;;
2390;SDS011;22957;50.824;4.360;2023-04-08T12:36:03;14.93;;;12.23;;
2390;SDS011;22957;50.824;4.360;2023-04-08T12:38:29;21.00;;;13.83;;
2390;SDS011;22957;50.824;4.360;2023-04-08T12:40:55;13.30;;;10.70;;
2390;SDS011;22957;50.824;4.360;2023-04-08T12:43:22;16.73;;;11.80;;
2390;SDS011;22957;50.824;4.360;2023-04-08T12:45:48;15.33;;;11.50;;
2390;SDS011;22957;50.824;4.360;2023-04-08T12:48:15;15.40;;;10.73;;
2390;SDS011;22957;50.824;4.360;2023-04-08T12:50:41;26.13;;;17.27;;
2390;SDS011;22957;50.824;4.360;2023-04-08T12:53:07;21.00;;;15.60;;
2390;SDS011;22957;50.824;4.360;2023-04-08T12:55:33;14.07;;;11.83;;
2390;SDS011;22957;50.824;4.360;2023-04-08T12:58:02;15.30;;;11.07;;
2390;SDS011;22957;50.824;4.360;2023-04-08T13:00:29;16.93;;;11.30;;
2390;SDS011;22957;50.824;4.360;2023-04-08T13:02:55;21.47;;;15.53;;
2390;SDS011;22957;50.824;4.360;2023-04-08T13:05:21;15.60;;;13.40;;
2390;SDS011;22957;50.824;4.360;2023-04-08T13:07:46;19.80;;;15.00;;
2390;SDS011;22957;50.824;4.360;2023-04-08T13:10:12;19.87;;;14.00;;
2390;SDS011;22957;50.824;4.360;2023-04-08T13:12:39;16.00;;;12.77;;
2390;SDS011;22957;50.824;4.360;2023-04-08T13:15:05;15.87;;;11.87;;
2390;SDS011;22957;50.824;4.360;2023-04-08T13:17:31;18.70;;;13.47;;
2390;SDS011;22957;50.824;4.360;2023-04-08T13:19:57;18.03;;;13.33;;
2390;SDS011;22957;50.824;4.360;2023-04-08T13:22:24;13.47;;;10.70;;
2390;SDS011;22957;50.824;4.360;2023-04-08T13:24:50;20.80;;;12.50;;
2390;SDS011;22957;50.824;4.360;2023-04-08T13:27:16;16.53;;;13.77;;
2390;SDS011;22957;50.824;4.360;2023-04-08T13:29:41;16.27;;;13.40;;
2390;SDS011;22957;50.824;4.360;2023-04-08T13:32:08;19.57;;;13.50;;
2390;SDS011;22957;50.824;4.360;2023-04-08T13:34:34;17.70;;;13.53;;
2390;SDS011;22957;50.824;4.360;2023-04-08T13:37:00;16.03;;;11.80;;
2390;SDS011;22957;50.824;4.360;2023-04-08T13:39:27;19.80;;;11.50;;
2390;SDS011;22957;50.824;4.360;2023-04-08T13:41:54;11.90;;;10.70;;
2390;SDS011;22957;50.824;4.360;2023-04-08T13:44:20;13.63;;;11.70;;
2390;SDS011;22957;50.824;4.360;2023-04-08T13:46:47;23.17;;;13.60;;
2390;SDS011;22957;50.824;4.360;2023-04-08T13:49:12;23.20;;;15.00;;
2390;SDS011;22957;50.824;4.360;2023-04-08T13:51:40;14.50;;;11.80;;
2390;SDS011;22957;50.824;4.360;2023-04-08T13:54:05;16.27;;;12.47;;
2390;SDS011;22957;50.824;4.360;2023-04-08T13:56:31;15.23;;;13.10;;
2390;SDS011;22957;50.824;4.360;2023-04-08T13:58:56;13.47;;;9.50;;
2390;SDS011;22957;50.824;4.360;2023-04-08T14:01:22;10.80;;;9.70;;
2390;SDS011;22957;50.824;4.360;2023-04-08T14:03:47;16.97;;;11.40;;
2390;SDS011;22957;50.824;4.360;2023-04-08T14:06:14;17.43;;;11.83;;
2390;SDS011;22957;50.824;4.360;2023-04-08T14:08:40;17.80;;;11.17;;
2390;SDS011;22957;50.824;4.360;2023-04-08T14:11:07;17.27;;;12.67;;
2390;SDS011;22957;50.824;4.360;2023-04-08T14:13:33;16.03;;;11.63;;
2390;SDS011;22957;50.824;4.360;2023-04-08T14:16:00;16.27;;;12.87;;
2390;SDS011;22957;50.824;4.360;2023-04-08T14:18:27;11.87;;;9.80;;
2390;SDS011;22957;50.824;4.360;2023-04-08T14:20:53;18.97;;;13.30;;
2390;SDS011;22957;50.824;4.360;2023-04-08T14:23:18;16.13;;;12.83;;
2390;SDS011;22957;50.824;4.360;2023-04-08T14:25:45;17.43;;;12.80;;
2390;SDS011;22957;50.824;4.360;2023-04-08T14:28:11;17.57;;;12.67;;
2390;SDS011;22957;50.824;4.360;2023-04-08T14:30:37;12.63;;;9.17;;
2390;SDS011;22957;50.824;4.360;2023-04-08T14:33:02;15.77;;;11.83;;
2390;SDS011;22957;50.824;4.360;2023-04-08T14:35:29;13.10;;;10.37;;
2390;SDS011;22957;50.824;4.360;2023-04-08T14:37:55;13.30;;;10.67;;
2390;SDS011;22957;50.824;4.360;2023-04-08T14:40:22;14.97;;;10.27;;
2390;SDS011;22957;50.824;4.360;2023-04-08T14:42:47;12.50;;;10.60;;
2390;SDS011;22957;50.824;4.360;2023-04-08T14:45:14;13.70;;;11.77;;
2390;SDS011;22957;50.824;4.360;2023-04-08T14:47:40;16.27;;;10.23;;
2390;SDS011;22957;50.824;4.360;2023-04-08T14:50:06;13.00;;;11.30;;
2390;SDS011;22957;50.824;4.360;2023-04-08T14:52:33;17.53;;;12.93;;
2390;SDS011;22957;50.824;4.360;2023-04-08T14:54:59;15.77;;;12.20;;
2390;SDS011;22957;50.824;4.360;2023-04-08T14:57:24;18.07;;;14.07;;